createdAt,value
2023-01-27T00:00:49.562Z,-2.2
2023-01-27T00:05:57.516Z,-2.2
2023-01-27T00:11:05.495Z,-2.2
2023-01-27T00:16:13.585Z,-2.2
2023-01-27T00:21:21.400Z,-2.2
2023-01-27T00:26:29.371Z,-2.2
2023-01-27T00:31:35.589Z,-2.2
2023-01-27T00:36:41.712Z,-2.2
2023-01-27T00:41:49.685Z,-2.1
2023-01-27T00:46:57.648Z,-2.1
2023-01-27T00:52:05.578Z,-2.1
2023-01-27T00:57:13.561Z,-2.1
2023-01-27T01:02:21.507Z,-2.1
2023-01-27T01:07:27.684Z,-2.2
2023-01-27T01:12:35.648Z,-2.2
2023-01-27T01:17:43.601Z,-2.1
2023-01-27T01:22:49.768Z,-2.1
2023-01-27T01:27:56.001Z,-2.1
2023-01-27T01:33:02.195Z,-2.1
2023-01-27T01:38:10.076Z,-2.2
2023-01-27T01:43:16.275Z,-2.1
2023-01-27T01:48:22.432Z,-2.1
2023-01-27T01:53:30.392Z,-2.1
2023-01-27T01:58:38.412Z,-2.1
2023-01-27T02:03:44.526Z,-2.1
2023-01-27T02:08:52.499Z,-2.1
2023-01-27T02:13:58.703Z,-2.2
2023-01-27T02:19:04.833Z,-2.2
2023-01-27T02:24:11.080Z,-2.2
2023-01-27T02:29:19.011Z,-2.2
2023-01-27T02:34:25.154Z,-2.2
2023-01-27T02:39:33.121Z,-2.2
2023-01-27T02:44:41.126Z,-2.1
2023-01-27T02:49:47.264Z,-2.1
2023-01-27T02:54:53.437Z,-2.1
2023-01-27T03:05:07.619Z,-2
2023-01-27T03:10:15.525Z,-2
2023-01-27T03:15:23.656Z,-2
2023-01-27T03:20:29.773Z,-2
2023-01-27T03:25:37.637Z,-2
2023-01-27T03:30:43.888Z,-2
2023-01-27T03:35:49.999Z,-2
2023-01-27T03:40:56.169Z,-2
2023-01-27T03:46:04.165Z,-2
2023-01-27T03:51:12.103Z,-2
2023-01-27T03:56:18.278Z,-2
2023-01-27T04:01:26.279Z,-2
2023-01-27T04:06:34.210Z,-2
2023-01-27T04:11:40.357Z,-2
2023-01-27T04:16:46.528Z,-2
2023-01-27T04:21:54.530Z,-2.1
2023-01-27T04:27:00.695Z,-2.1
2023-01-27T04:32:06.852Z,-2.1
2023-01-27T04:37:13.059Z,-2.1
2023-01-27T04:42:19.228Z,-2.1
2023-01-27T04:47:27.167Z,-2.1
2023-01-27T04:52:33.395Z,-2
2023-01-27T04:57:41.306Z,-2.1
2023-01-27T05:02:49.352Z,-2.1
2023-01-27T05:07:55.551Z,-2.1
2023-01-27T05:13:03.547Z,-2
2023-01-27T05:18:11.376Z,-2.1
2023-01-27T05:23:17.570Z,-2.1
2023-01-27T05:28:26.269Z,-2.1
2023-01-27T05:33:31.685Z,-2.1
2023-01-27T05:38:37.873Z,-2.1
2023-01-27T05:43:45.838Z,-2.1
2023-01-27T05:48:53.821Z,-2.1
2023-01-27T05:54:01.760Z,-2.1
2023-01-27T05:59:07.921Z,-2.1
2023-01-27T06:04:14.109Z,-2.1
2023-01-27T06:09:20.326Z,-2.1
2023-01-27T06:14:26.437Z,-2.1
2023-01-27T06:19:32.623Z,-2.1
2023-01-27T06:24:38.852Z,-2.1
2023-01-27T06:34:52.944Z,-2.1
2023-01-27T06:40:00.950Z,-2.1
2023-01-27T06:45:07.078Z,-2.1
2023-01-27T06:50:15.482Z,-2.1
2023-01-27T06:55:21.384Z,-2.1
2023-01-27T07:00:27.414Z,-2.1
2023-01-27T07:05:33.585Z,-2.1
2023-01-27T07:10:39.768Z,-2.1
2023-01-27T07:15:45.952Z,-2.1
2023-01-27T07:20:53.905Z,-2.1
2023-01-27T07:26:01.029Z,-2
2023-01-27T07:31:06.405Z,-2
2023-01-27T07:36:12.424Z,-2
2023-01-27T07:41:20.412Z,-2
2023-01-27T07:46:26.575Z,-2
2023-01-27T07:51:34.542Z,-2
2023-01-27T07:56:42.488Z,-2
2023-01-27T08:01:50.433Z,-2
2023-01-27T08:06:58.443Z,-2
2023-01-27T08:12:06.405Z,-2
2023-01-27T08:17:14.320Z,-2
2023-01-27T08:22:20.494Z,-2
2023-01-27T08:27:26.712Z,-2
2023-01-27T08:32:32.869Z,-2
2023-01-27T08:37:39.033Z,-2
2023-01-27T08:42:47.014Z,-2
2023-01-27T08:47:53.162Z,-2
2023-01-27T08:52:59.365Z,-2
2023-01-27T08:58:05.578Z,-1.8
2023-01-27T09:03:13.501Z,-1.8
2023-01-27T09:08:21.479Z,-1.8
2023-01-27T09:13:27.647Z,-1.8
2023-01-27T09:18:35.580Z,-1.7
2023-01-27T09:23:43.540Z,-1.7
2023-01-27T09:28:51.549Z,-1.6
2023-01-27T09:33:57.698Z,-1.6
2023-01-27T09:39:05.642Z,-1.6
2023-01-27T09:44:13.682Z,-1.6
2023-01-27T09:49:19.797Z,-1.6
2023-01-27T09:54:25.953Z,-1.5
2023-01-27T09:59:33.960Z,-1.5
2023-01-27T10:04:40.252Z,-1.5
2023-01-27T10:09:46.352Z,-1.4
2023-01-27T10:14:52.474Z,-1.3
2023-01-27T10:19:58.635Z,-1.3
2023-01-27T10:25:04.840Z,-1.3
2023-01-27T10:30:13.230Z,-1.4
2023-01-27T10:35:19.001Z,-1.3
2023-01-27T10:40:25.108Z,-1.2
2023-01-27T10:45:33.149Z,-1.2
2023-01-27T10:50:39.264Z,-1.1
2023-01-27T10:55:45.432Z,-1.1
2023-01-27T11:01:22.509Z,-1.1
2023-01-27T11:06:01.337Z,-1.1
2023-01-27T11:11:09.319Z,-0.9
2023-01-27T11:16:15.585Z,-0.9
2023-01-27T11:21:22.009Z,-1
2023-01-27T11:26:27.849Z,-0.9
2023-01-27T11:31:37.106Z,-0.9
2023-01-27T11:36:41.977Z,-0.9
2023-01-27T11:41:49.935Z,-0.8
2023-01-27T11:46:56.140Z,-0.8
2023-01-27T11:52:04.055Z,-0.7
2023-01-27T11:57:10.236Z,-0.8
2023-01-27T12:02:16.452Z,-0.7
2023-01-27T12:07:24.537Z,-0.7
2023-01-27T12:12:32.337Z,-0.6
2023-01-27T12:17:38.549Z,-0.6
2023-01-27T12:22:46.488Z,-0.6
2023-01-27T12:27:52.638Z,-0.5
2023-01-27T12:32:58.863Z,-0.5
2023-01-27T12:38:05.013Z,-0.5
2023-01-27T12:43:11.188Z,-0.5
2023-01-27T12:48:19.182Z,-0.5
2023-01-27T12:53:27.136Z,-0.5
2023-01-27T12:58:33.317Z,-0.3
2023-01-27T13:03:41.317Z,-0.3
2023-01-27T13:08:49.180Z,-0.3
2023-01-27T13:13:55.388Z,-0.3
2023-01-27T13:19:03.348Z,-0.3
2023-01-27T13:24:11.312Z,-0.2
2023-01-27T13:29:17.465Z,-0.2
2023-01-27T13:34:25.451Z,-0.2
2023-01-27T13:39:31.594Z,-0.2
2023-01-27T13:44:39.580Z,-0.2
2023-01-27T13:49:45.758Z,-0.1
2023-01-27T13:54:53.709Z,-0.1
2023-01-27T13:59:59.875Z,-0.2
2023-01-27T14:05:06.198Z,-0.2
2023-01-27T14:10:12.608Z,-0.2
2023-01-27T14:15:20.191Z,-0.2
2023-01-27T14:20:26.373Z,-0.2
2023-01-27T14:25:32.945Z,-0.2
2023-01-27T14:30:38.803Z,-0.2
2023-01-27T14:35:44.923Z,-0.2
2023-01-27T14:40:52.863Z,-0.2
2023-01-27T14:45:59.005Z,-0.2
2023-01-27T14:51:05.265Z,-0.2
2023-01-27T14:56:13.146Z,-0.1
2023-01-27T15:01:19.319Z,-0.1
2023-01-27T15:06:25.525Z,-0.1
2023-01-27T15:11:31.671Z,-0.1
2023-01-27T15:16:37.962Z,-0.1
2023-01-27T15:21:45.860Z,-0.1
2023-01-27T15:26:51.999Z,-0.1
2023-01-27T15:31:58.230Z,-0.1
2023-01-27T15:37:06.144Z,-0.1
2023-01-27T15:42:12.342Z,-0.2
2023-01-27T15:47:18.477Z,-0.2
2023-01-27T15:52:24.670Z,-0.2
2023-01-27T15:57:32.607Z,-0.2
2023-01-27T16:02:38.794Z,-0.2
2023-01-27T16:07:44.978Z,-0.2
2023-01-27T16:12:51.143Z,-0.2
2023-01-27T16:17:57.324Z,-0.2
2023-01-27T16:23:05.298Z,-0.3
2023-01-27T16:28:13.231Z,-0.3
2023-01-27T16:33:21.194Z,-0.3
2023-01-27T16:38:27.445Z,-0.3
2023-01-27T16:43:33.576Z,-0.3
2023-01-27T16:48:39.743Z,-0.3
2023-01-27T16:53:47.721Z,-0.4
2023-01-27T16:58:53.875Z,-0.4
2023-01-27T17:04:07.682Z,-0.4
2023-01-27T17:09:06.221Z,-0.4
2023-01-27T17:14:24.650Z,-0.4
2023-01-27T17:19:18.597Z,-0.4
2023-01-27T17:24:26.708Z,-0.4
2023-01-27T17:29:32.721Z,-0.4
2023-01-27T17:34:38.884Z,-0.4
2023-01-27T17:39:46.870Z,-0.4
2023-01-27T17:44:54.790Z,-0.5
2023-01-27T17:50:01.197Z,-0.5
2023-01-27T18:00:15.163Z,-0.5
2023-01-27T18:05:23.076Z,-0.5
2023-01-27T18:10:31.033Z,-0.5
2023-01-27T18:15:37.331Z,-0.5
2023-01-27T18:20:43.387Z,-0.5
2023-01-27T18:25:51.548Z,-0.5
2023-01-27T18:30:57.694Z,-0.6
2023-01-27T18:36:03.727Z,-0.6
2023-01-27T18:41:11.690Z,-0.6
2023-01-27T18:46:19.695Z,-0.6
2023-01-27T18:51:27.589Z,-0.6
2023-01-27T18:56:33.742Z,-0.6
2023-01-27T19:01:40.024Z,-0.6
2023-01-27T19:06:46.107Z,-0.6
2023-01-27T19:11:52.250Z,-0.6
2023-01-27T19:17:00.254Z,-0.6
2023-01-27T19:22:06.407Z,-0.7
2023-01-27T19:27:14.377Z,-0.7
2023-01-27T19:32:22.334Z,-0.7
2023-01-27T19:37:30.307Z,-0.7
2023-01-27T19:42:36.464Z,-0.7
2023-01-27T19:47:42.673Z,-0.7
2023-01-27T19:52:50.659Z,-0.7
2023-01-27T19:57:58.548Z,-0.7
2023-01-27T20:03:06.545Z,-0.7
2023-01-27T20:08:12.677Z,-0.7
2023-01-27T20:13:18.878Z,-0.7
2023-01-27T20:18:26.835Z,-0.8
2023-01-27T20:23:34.791Z,-0.8
2023-01-27T20:28:42.766Z,-0.8
2023-01-27T20:33:48.974Z,-0.8
2023-01-27T20:38:55.120Z,-0.8
2023-01-27T20:44:01.290Z,-0.8
2023-01-27T20:49:07.554Z,-0.8
2023-01-27T20:54:13.616Z,-0.8
2023-01-27T20:59:19.821Z,-0.8
2023-01-27T21:04:27.806Z,-0.8
2023-01-27T21:09:33.968Z,-0.8
2023-01-27T21:14:41.942Z,-0.9
2023-01-27T21:19:49.896Z,-0.9
2023-01-27T21:24:56.126Z,-0.9
2023-01-27T21:30:02.224Z,-0.9
2023-01-27T21:35:08.427Z,-0.9
2023-01-27T21:40:14.579Z,-0.9
2023-01-27T21:45:22.523Z,-0.9
2023-01-27T21:50:28.723Z,-0.9
2023-01-27T21:55:34.880Z,-0.9
2023-01-27T22:00:41.106Z,-0.9
2023-01-27T22:05:49.046Z,-0.9
2023-01-27T22:10:56.982Z,-0.9
2023-01-27T22:16:05.027Z,-1
2023-01-27T22:21:12.916Z,-1
2023-01-27T22:26:20.844Z,-1
2023-01-27T22:31:27.036Z,-1
2023-01-27T22:41:42.975Z,-1
2023-01-27T22:46:50.919Z,-1
2023-01-27T22:51:57.103Z,-1
2023-01-27T22:57:03.277Z,-1
2023-01-27T23:02:09.489Z,-1
2023-01-27T23:07:15.632Z,-1
2023-01-27T23:12:23.633Z,-1
2023-01-27T23:17:29.758Z,-1
2023-01-27T23:22:37.698Z,-1
2023-01-27T23:27:43.915Z,-1
2023-01-27T23:32:51.897Z,-1.1
2023-01-27T23:37:59.792Z,-1.1
2023-01-27T23:43:06.003Z,-1.1
2023-01-27T23:48:13.934Z,-1.1
2023-01-27T23:53:20.159Z,-1.1
2023-01-27T23:58:26.338Z,-1.1
